createdAt,value
2019-05-10T00:00:51.674Z,13.60
2019-05-10T00:03:39.327Z,13.40
2019-05-10T00:06:27.094Z,13.30
2019-05-10T00:08:56.440Z,13.30
2019-05-10T00:11:30.839Z,13.40
2019-05-10T00:14:12.192Z,13.40
2019-05-10T00:16:42.300Z,13.30
2019-05-10T00:19:12.423Z,13.30
2019-05-10T00:21:42.480Z,13.40
2019-05-10T00:24:12.495Z,13.40
2019-05-10T00:26:42.620Z,13.50
2019-05-10T00:29:12.804Z,13.40
2019-05-10T00:31:42.951Z,13.40
2019-05-10T00:34:13.143Z,13.30
2019-05-10T00:36:43.224Z,13.10
2019-05-10T00:39:13.203Z,13.00
2019-05-10T00:41:43.248Z,13.00
2019-05-10T00:44:13.293Z,13.00
2019-05-10T00:46:43.417Z,12.90
2019-05-10T00:49:13.358Z,12.90
2019-05-10T00:51:43.494Z,12.90
2019-05-10T00:54:13.535Z,13.00
2019-05-10T00:56:43.585Z,13.00
2019-05-10T00:59:13.708Z,13.10
2019-05-10T01:01:43.757Z,13.00
2019-05-10T01:04:13.737Z,12.80
2019-05-10T01:06:43.775Z,12.90
2019-05-10T01:09:14.866Z,13.00
2019-05-10T01:11:45.044Z,13.00
2019-05-10T01:14:15.128Z,13.00
2019-05-10T01:16:45.179Z,13.00
2019-05-10T01:19:15.188Z,13.00
2019-05-10T01:21:45.247Z,13.10
2019-05-10T01:24:15.323Z,13.20
2019-05-10T01:26:45.360Z,13.30
2019-05-10T01:29:15.540Z,13.40
2019-05-10T01:31:45.649Z,13.40
2019-05-10T01:34:15.655Z,13.40
2019-05-10T01:36:45.719Z,13.40
2019-05-10T01:39:15.791Z,13.40
2019-05-10T01:41:45.767Z,13.50
2019-05-10T01:44:15.815Z,13.40
2019-05-10T01:46:45.894Z,13.40
2019-05-10T01:49:15.931Z,13.40
2019-05-10T01:51:45.952Z,13.40
2019-05-10T01:54:16.058Z,13.40
2019-05-10T01:56:46.007Z,13.40
2019-05-10T01:59:16.199Z,13.40
2019-05-10T02:01:46.215Z,13.40
2019-05-10T02:04:17.817Z,13.20
2019-05-10T02:06:48.223Z,13.20
2019-05-10T02:09:18.307Z,13.10
2019-05-10T02:11:48.319Z,13.20
2019-05-10T02:14:18.363Z,13.20
2019-05-10T02:16:48.494Z,13.30
2019-05-10T02:19:18.443Z,13.20
2019-05-10T02:21:48.563Z,13.30
2019-05-10T02:24:18.540Z,13.30
2019-05-10T02:26:48.620Z,13.20
2019-05-10T02:29:18.592Z,13.20
2019-05-10T02:31:48.538Z,13.20
2019-05-10T02:34:18.533Z,13.20
2019-05-10T02:36:48.638Z,13.10
2019-05-10T02:39:18.616Z,12.90
2019-05-10T02:41:48.593Z,12.80
2019-05-10T02:44:18.668Z,12.60
2019-05-10T02:46:48.709Z,12.70
2019-05-10T02:49:18.857Z,12.70
2019-05-10T02:51:48.964Z,12.70
2019-05-10T02:54:19.111Z,12.70
2019-05-10T02:56:49.730Z,12.50
2019-05-10T02:59:20.613Z,12.50
2019-05-10T03:01:53.629Z,12.40
2019-05-10T03:04:24.848Z,12.40
2019-05-10T03:07:02.849Z,12.30
2019-05-10T03:09:34.908Z,12.30
2019-05-10T03:12:22.536Z,12.20
2019-05-10T03:14:57.774Z,12.10
2019-05-10T03:17:28.603Z,12.20
2019-05-10T03:20:00.325Z,12.10
2019-05-10T03:22:33.378Z,12.10
2019-05-10T03:25:03.691Z,12.10
2019-05-10T03:27:33.997Z,12.00
2019-05-10T03:30:04.902Z,12.00
2019-05-10T03:32:35.044Z,12.10
2019-05-10T03:35:07.021Z,12.10
2019-05-10T03:37:37.204Z,12.10
2019-05-10T03:40:26.583Z,12.10
2019-05-10T03:42:56.664Z,12.00
2019-05-10T03:45:26.728Z,11.90
2019-05-10T03:47:56.669Z,11.80
2019-05-10T03:50:26.860Z,11.80
2019-05-10T03:52:56.876Z,11.80
2019-05-10T03:55:26.989Z,11.90
2019-05-10T03:57:57.003Z,11.80
2019-05-10T04:00:27.443Z,11.90
2019-05-10T04:02:57.504Z,11.80
2019-05-10T04:05:27.635Z,11.70
2019-05-10T04:07:57.724Z,11.70
2019-05-10T04:10:27.858Z,11.60
2019-05-10T04:12:57.927Z,11.60
2019-05-10T04:15:27.972Z,11.60
2019-05-10T04:17:58.277Z,11.70
2019-05-10T04:20:28.423Z,11.90
2019-05-10T04:22:58.444Z,11.80
2019-05-10T04:25:28.487Z,11.90
2019-05-10T04:27:58.495Z,11.90
2019-05-10T04:30:31.835Z,11.90
2019-05-10T04:33:01.213Z,12.00
2019-05-10T04:35:31.299Z,12.10
2019-05-10T04:38:01.315Z,11.90
2019-05-10T04:40:31.357Z,11.90
2019-05-10T04:43:01.369Z,12.00
2019-05-10T04:45:31.496Z,12.10
2019-05-10T04:48:01.485Z,12.20
2019-05-10T04:50:31.445Z,12.20
2019-05-10T04:53:01.491Z,12.20
2019-05-10T04:55:31.513Z,12.20
2019-05-10T04:58:01.475Z,12.20
2019-05-10T05:00:31.484Z,12.30
2019-05-10T05:03:01.644Z,12.30
2019-05-10T05:05:31.833Z,12.30
2019-05-10T05:08:01.852Z,12.40
2019-05-10T05:10:31.935Z,12.60
2019-05-10T05:13:02.014Z,12.60
2019-05-10T05:15:32.075Z,12.80
2019-05-10T05:18:02.199Z,12.90
2019-05-10T05:20:32.243Z,12.80
2019-05-10T05:23:02.255Z,12.80
2019-05-10T05:25:35.130Z,12.90
2019-05-10T05:28:08.120Z,13.10
2019-05-10T05:30:38.675Z,13.30
2019-05-10T05:33:07.257Z,13.50
2019-05-10T05:35:37.372Z,13.60
2019-05-10T05:38:07.455Z,13.70
2019-05-10T05:40:37.460Z,13.80
2019-05-10T05:43:08.341Z,13.90
2019-05-10T05:45:39.148Z,14.00
2019-05-10T05:48:09.220Z,14.10
2019-05-10T05:50:39.222Z,14.30
2019-05-10T05:53:09.331Z,14.30
2019-05-10T05:55:39.351Z,14.40
2019-05-10T05:58:25.225Z,14.50
2019-05-10T06:00:44.530Z,14.60
2019-05-10T06:03:19.661Z,14.60
2019-05-10T06:05:44.463Z,14.60
2019-05-10T06:08:23.206Z,14.60
2019-05-10T06:10:56.860Z,14.60
2019-05-10T06:13:23.443Z,14.60
2019-05-10T06:15:49.439Z,14.60
2019-05-10T06:18:20.415Z,14.60
2019-05-10T06:20:50.397Z,14.40
2019-05-10T06:23:20.331Z,14.10
2019-05-10T06:25:50.462Z,14.20
2019-05-10T06:28:26.811Z,14.30
2019-05-10T06:30:54.376Z,14.50
2019-05-10T06:33:24.319Z,14.60
2019-05-10T06:35:54.299Z,14.60
2019-05-10T06:38:24.271Z,14.70
2019-05-10T06:40:54.283Z,14.70
2019-05-10T06:43:24.323Z,14.80
2019-05-10T06:45:54.403Z,14.80
2019-05-10T06:48:27.417Z,14.90
2019-05-10T06:50:56.164Z,15.00
2019-05-10T06:53:26.203Z,15.10
2019-05-10T06:55:56.178Z,15.20
2019-05-10T06:58:30.483Z,15.30
2019-05-10T07:00:57.927Z,15.30
2019-05-10T07:03:27.899Z,15.20
2019-05-10T07:05:57.844Z,15.40
2019-05-10T07:08:42.270Z,15.50
2019-05-10T07:10:59.631Z,15.60
2019-05-10T07:13:29.678Z,15.70
2019-05-10T07:15:59.751Z,15.90
2019-05-10T07:18:29.794Z,16.00
2019-05-10T07:21:00.835Z,16.00
2019-05-10T07:23:31.340Z,16.10
2019-05-10T07:26:01.420Z,16.20
2019-05-10T07:28:31.476Z,16.40
2019-05-10T07:31:01.487Z,16.40
2019-05-10T07:33:37.363Z,16.50
2019-05-10T07:36:14.355Z,16.70
2019-05-10T07:38:39.095Z,16.80
2019-05-10T07:41:09.208Z,16.90
2019-05-10T07:43:39.309Z,16.90
2019-05-10T07:46:14.426Z,17.00
2019-05-10T07:48:47.271Z,17.00
2019-05-10T07:51:16.712Z,17.00
2019-05-10T07:54:00.407Z,17.10
2019-05-10T07:56:38.889Z,17.20
2019-05-10T07:59:10.111Z,17.20
2019-05-10T08:01:40.203Z,17.30
2019-05-10T08:04:29.010Z,17.30
2019-05-10T08:06:53.965Z,17.30
2019-05-10T08:09:31.786Z,17.40
2019-05-10T08:12:05.149Z,17.50
2019-05-10T08:14:33.947Z,17.50
2019-05-10T08:17:06.285Z,17.70
2019-05-10T08:19:37.536Z,17.70
2019-05-10T08:22:09.335Z,17.70
2019-05-10T08:24:46.445Z,17.60
2019-05-10T08:27:14.874Z,17.60
2019-05-10T08:29:44.324Z,17.50
2019-05-10T08:32:14.725Z,17.50
2019-05-10T08:34:52.137Z,17.40
2019-05-10T08:37:19.441Z,17.40
2019-05-10T08:42:48.991Z,17.50
2019-05-10T08:45:16.172Z,17.60
2019-05-10T08:47:46.283Z,17.60
2019-05-10T08:50:34.359Z,17.70
2019-05-10T08:52:48.226Z,17.80
2019-05-10T08:55:18.312Z,17.90
2019-05-10T08:57:49.438Z,18.00
2019-05-10T09:00:40.226Z,18.10
2019-05-10T09:02:52.090Z,18.20
2019-05-10T09:05:28.809Z,18.30
2019-05-10T09:07:53.822Z,18.40
2019-05-10T09:10:24.412Z,18.40
2019-05-10T09:12:58.104Z,18.50
2019-05-10T09:15:26.227Z,18.60
2019-05-10T09:17:58.359Z,18.70
2019-05-10T09:20:28.103Z,18.90
2019-05-10T09:22:58.175Z,19.00
2019-05-10T09:25:30.889Z,19.30
2019-05-10T09:28:02.429Z,19.50
2019-05-10T09:30:35.609Z,19.60
2019-05-10T09:33:13.417Z,19.60
2019-05-10T09:35:39.074Z,19.80
2019-05-10T09:38:12.244Z,20.00
2019-05-10T09:40:51.653Z,20.10
2019-05-10T09:43:15.021Z,20.20
2019-05-10T09:45:45.168Z,20.10
2019-05-10T09:48:15.276Z,20.20
2019-05-10T09:50:46.960Z,20.40
2019-05-10T09:53:25.439Z,20.60
2019-05-10T09:56:01.662Z,20.80
2019-05-10T09:58:23.233Z,20.90
2019-05-10T10:01:10.319Z,21.00
2019-05-10T10:03:29.663Z,21.10
2019-05-10T10:06:05.098Z,21.10
2019-05-10T10:08:30.119Z,21.40
2019-05-10T10:11:10.162Z,21.40
2019-05-10T10:13:40.058Z,21.20
2019-05-10T10:16:04.057Z,21.20
2019-05-10T10:18:37.105Z,21.00
2019-05-10T10:21:07.111Z,20.90
2019-05-10T10:23:37.809Z,21.00
2019-05-10T10:26:12.835Z,21.10
2019-05-10T10:28:39.878Z,20.90
2019-05-10T10:31:09.968Z,20.80
2019-05-10T10:33:42.804Z,20.60
2019-05-10T10:36:11.707Z,20.50
2019-05-10T10:38:45.351Z,20.70
2019-05-10T10:41:17.115Z,21.10
2019-05-10T10:43:45.154Z,21.40
2019-05-10T10:46:17.608Z,21.50
2019-05-10T10:48:49.106Z,21.70
2019-05-10T10:51:18.640Z,21.50
2019-05-10T10:53:48.680Z,21.60
2019-05-10T10:56:18.791Z,21.60
2019-05-10T10:58:50.012Z,21.60
2019-05-10T11:01:25.418Z,21.80
2019-05-10T11:03:51.784Z,22.10
2019-05-10T11:06:21.726Z,22.20
2019-05-10T11:08:51.960Z,22.30
2019-05-10T11:11:22.027Z,22.40
2019-05-10T11:14:00.514Z,22.50
2019-05-10T11:16:23.643Z,22.40
2019-05-10T11:18:53.640Z,22.50
2019-05-10T11:21:28.502Z,22.50
2019-05-10T11:23:55.238Z,22.50
2019-05-10T11:26:26.743Z,22.50
2019-05-10T11:28:56.899Z,22.60
2019-05-10T11:31:27.004Z,22.60
2019-05-10T11:33:59.214Z,22.40
2019-05-10T11:36:31.065Z,22.60
2019-05-10T11:39:01.613Z,22.80
2019-05-10T11:41:32.896Z,22.90
2019-05-10T11:44:05.422Z,22.90
2019-05-10T11:46:34.640Z,22.90
2019-05-10T11:49:04.817Z,23.10
2019-05-10T11:51:34.833Z,23.20
2019-05-10T11:54:04.947Z,23.40
2019-05-10T11:56:34.955Z,23.30
2019-05-10T11:59:05.836Z,23.60
2019-05-10T12:01:41.194Z,23.80
2019-05-10T12:04:14.469Z,23.90
2019-05-10T12:06:41.391Z,23.60
2019-05-10T12:09:12.490Z,23.60
2019-05-10T12:11:51.941Z,23.70
2019-05-10T12:14:13.945Z,23.60
2019-05-10T12:16:43.948Z,23.00
2019-05-10T12:19:20.006Z,22.70
2019-05-10T12:21:45.624Z,22.70
2019-05-10T12:26:19.496Z,23.00
2019-05-10T12:27:13.979Z,23.40
2019-05-10T12:29:21.132Z,23.80
2019-05-10T12:31:55.062Z,23.40
2019-05-10T12:34:22.047Z,23.50
2019-05-10T12:36:52.113Z,24.00
2019-05-10T12:39:22.203Z,24.30
2019-05-10T12:41:52.967Z,24.50
2019-05-10T12:44:23.356Z,24.90
2019-05-10T12:46:54.483Z,24.90
2019-05-10T12:49:23.719Z,25.00
2019-05-10T12:51:53.642Z,24.90
2019-05-10T12:54:25.489Z,24.90
2019-05-10T12:56:55.612Z,25.00
2019-05-10T12:59:29.665Z,25.00
2019-05-10T13:01:58.338Z,24.40
2019-05-10T13:04:39.671Z,24.40
2019-05-10T13:06:59.168Z,24.50
2019-05-10T13:09:39.365Z,24.70
2019-05-10T13:12:06.128Z,24.70
2019-05-10T13:14:40.257Z,24.90
2019-05-10T13:17:09.872Z,24.80
2019-05-10T13:19:38.828Z,25.00
2019-05-10T13:22:08.828Z,25.20
2019-05-10T13:24:38.872Z,25.70
2019-05-10T13:27:09.152Z,25.90
2019-05-10T13:29:40.573Z,25.50
2019-05-10T13:32:14.966Z,25.40
2019-05-10T13:34:42.754Z,25.00
2019-05-10T13:37:20.948Z,25.00
2019-05-10T13:39:44.379Z,25.30
2019-05-10T13:42:14.613Z,26.00
2019-05-10T13:44:44.648Z,26.00
2019-05-10T13:47:14.769Z,26.00
2019-05-10T13:49:48.485Z,26.10
2019-05-10T13:52:16.435Z,26.10
2019-05-10T13:54:46.536Z,25.40
2019-05-10T13:57:16.472Z,25.90
2019-05-10T13:59:49.097Z,26.40
2019-05-10T14:02:22.949Z,27.00
2019-05-10T14:04:50.103Z,27.40
2019-05-10T14:07:20.227Z,27.70
2019-05-10T14:09:50.157Z,28.70
2019-05-10T14:12:23.183Z,28.80
2019-05-10T14:14:55.594Z,28.50
2019-05-10T14:17:23.545Z,28.50
2019-05-10T14:19:53.619Z,29.00
2019-05-10T14:22:23.655Z,29.40
2019-05-10T14:24:58.524Z,28.70
2019-05-10T14:27:29.784Z,28.70
2019-05-10T14:29:56.844Z,29.50
2019-05-10T14:32:26.893Z,29.70
2019-05-10T14:34:56.971Z,30.00
2019-05-10T14:37:26.956Z,29.70
2019-05-10T14:42:42.460Z,29.60
2019-05-10T14:45:12.504Z,28.70
2019-05-10T14:47:48.485Z,27.00
2019-05-10T14:50:19.610Z,27.40
2019-05-10T14:52:46.298Z,28.90
2019-05-10T14:55:16.399Z,29.50
2019-05-10T14:57:46.391Z,30.10
2019-05-10T15:00:17.100Z,30.60
2019-05-10T15:02:46.255Z,31.30
2019-05-10T15:05:18.071Z,31.30
2019-05-10T15:07:50.948Z,29.70
2019-05-10T15:10:19.644Z,30.10
2019-05-10T15:12:49.728Z,30.80
2019-05-10T15:15:19.936Z,31.00
2019-05-10T15:17:54.902Z,30.20
2019-05-10T15:20:21.599Z,30.10
2019-05-10T15:22:51.675Z,30.10
2019-05-10T15:25:21.719Z,31.00
2019-05-10T15:27:54.745Z,29.30
2019-05-10T15:30:23.556Z,29.00
2019-05-10T15:32:53.627Z,30.10
2019-05-10T15:35:23.743Z,29.10
2019-05-10T15:37:53.747Z,29.80
2019-05-10T15:40:24.047Z,30.50
2019-05-10T15:42:54.090Z,30.60
2019-05-10T15:45:25.163Z,30.10
2019-05-10T15:47:57.455Z,30.10
2019-05-10T15:52:58.590Z,30.20
2019-05-10T15:55:28.960Z,30.90
2019-05-10T15:58:00.263Z,31.50
2019-05-10T15:59:23.401Z,29.70
2019-05-10T16:00:37.395Z,31.30
2019-05-10T16:03:02.063Z,31.40
2019-05-10T16:05:43.250Z,31.40
2019-05-10T16:08:03.823Z,30.60
2019-05-10T16:10:39.554Z,30.70
2019-05-10T16:13:05.623Z,31.10
2019-05-10T16:15:35.624Z,29.90
2019-05-10T16:18:05.743Z,30.70
2019-05-10T16:20:37.076Z,31.30
2019-05-10T16:23:08.931Z,31.80
2019-05-10T16:25:42.924Z,31.80
2019-05-10T16:28:15.363Z,31.70
2019-05-10T16:30:46.769Z,31.60
2019-05-10T16:33:15.963Z,32.00
2019-05-10T16:35:49.874Z,32.10
2019-05-10T16:38:18.409Z,32.30
2019-05-10T16:40:57.387Z,32.30
2019-05-10T16:43:24.356Z,32.70
2019-05-10T16:45:51.853Z,32.30
2019-05-10T16:48:22.731Z,32.40
2019-05-10T16:50:52.839Z,32.60
2019-05-10T16:53:22.835Z,33.00
2019-05-10T16:55:52.879Z,33.00
2019-05-10T16:58:22.880Z,32.70
2019-05-10T17:00:54.069Z,32.20
2019-05-10T17:03:23.984Z,31.10
2019-05-10T17:05:58.555Z,29.70
2019-05-10T17:08:30.516Z,28.90
2019-05-10T17:10:57.312Z,28.50
2019-05-10T17:13:27.343Z,27.70
2019-05-10T17:15:57.328Z,27.00
2019-05-10T17:18:27.391Z,26.50
2019-05-10T17:20:57.515Z,26.10
2019-05-10T17:23:27.691Z,25.90
2019-05-10T17:25:57.832Z,25.50
2019-05-10T17:28:29.626Z,25.20
2019-05-10T17:31:06.693Z,25.10
2019-05-10T17:33:31.379Z,25.00
2019-05-10T17:36:08.272Z,24.70
2019-05-10T17:38:33.200Z,24.00
2019-05-10T17:41:03.222Z,24.00
2019-05-10T17:43:33.200Z,24.20
2019-05-10T17:46:03.301Z,24.30
2019-05-10T17:48:33.299Z,24.30
2019-05-10T17:51:03.364Z,24.50
2019-05-10T17:53:33.524Z,24.70
2019-05-10T17:56:03.642Z,24.80
2019-05-10T17:58:35.029Z,25.00
2019-05-10T18:01:05.268Z,24.90
2019-05-10T18:03:35.426Z,24.80
2019-05-10T18:06:05.886Z,24.80
2019-05-10T18:08:35.883Z,24.60
2019-05-10T18:11:06.230Z,23.50
2019-05-10T18:13:40.799Z,22.50
2019-05-10T18:16:09.523Z,21.90
2019-05-10T18:18:46.357Z,21.40
2019-05-10T18:21:15.797Z,21.30
2019-05-10T18:23:42.870Z,21.40
2019-05-10T18:26:12.899Z,21.60
2019-05-10T18:28:42.975Z,21.60
2019-05-10T18:31:13.019Z,21.40
2019-05-10T18:33:44.847Z,20.90
2019-05-10T18:36:14.672Z,20.60
2019-05-10T18:38:44.739Z,20.50
2019-05-10T18:41:14.776Z,20.30
2019-05-10T18:43:45.224Z,20.10
2019-05-10T18:46:15.256Z,19.80
2019-05-10T18:48:45.339Z,19.70
2019-05-10T18:51:18.004Z,19.60
2019-05-10T18:53:47.036Z,19.50
2019-05-10T18:56:17.048Z,19.40
2019-05-10T18:58:47.097Z,19.20
2019-05-10T19:01:17.104Z,19.30
2019-05-10T19:03:47.070Z,19.10
2019-05-10T19:06:17.111Z,19.00
2019-05-10T19:08:47.126Z,18.70
2019-05-10T19:11:17.335Z,18.50
2019-05-10T19:13:53.796Z,18.40
2019-05-10T19:16:19.947Z,18.30
2019-05-10T19:18:49.984Z,18.80
2019-05-10T19:21:25.047Z,18.90
2019-05-10T19:23:53.682Z,19.20
2019-05-10T19:26:28.907Z,19.20
2019-05-10T19:28:59.074Z,18.80
2019-05-10T19:31:31.566Z,18.50
2019-05-10T19:33:58.719Z,18.30
2019-05-10T19:36:28.800Z,18.60
2019-05-10T19:38:58.848Z,18.50
2019-05-10T19:41:28.918Z,18.10
2019-05-10T19:45:43.219Z,18.00
2019-05-10T19:46:38.837Z,18.10
2019-05-10T19:49:02.483Z,18.40
2019-05-10T19:51:32.592Z,18.60
2019-05-10T19:54:03.676Z,18.60
2019-05-10T19:56:36.535Z,18.60
2019-05-10T19:59:11.886Z,18.50
2019-05-10T20:01:37.079Z,18.30
2019-05-10T20:04:09.316Z,18.30
2019-05-10T20:06:38.888Z,18.10
2019-05-10T20:09:08.998Z,17.60
2019-05-10T20:11:38.936Z,17.60
2019-05-10T20:14:08.976Z,17.70
2019-05-10T20:16:52.187Z,18.10
2019-05-10T20:19:10.786Z,18.20
2019-05-10T20:21:40.793Z,18.30
2019-05-10T20:24:10.923Z,18.40
2019-05-10T20:26:40.871Z,18.40
2019-05-10T20:29:11.055Z,18.40
2019-05-10T20:31:41.163Z,18.40
2019-05-10T20:34:11.267Z,18.30
2019-05-10T20:36:41.376Z,18.40
2019-05-10T20:39:11.454Z,18.30
2019-05-10T20:41:41.560Z,18.30
2019-05-10T20:44:11.563Z,18.30
2019-05-10T20:46:41.668Z,18.30
2019-05-10T20:49:11.638Z,18.20
2019-05-10T20:51:41.680Z,18.10
2019-05-10T20:54:11.637Z,18.10
2019-05-10T20:56:41.703Z,18.20
2019-05-10T20:59:11.796Z,18.20
2019-05-10T21:01:41.845Z,18.10
2019-05-10T21:04:11.919Z,18.10
2019-05-10T21:06:41.935Z,18.10
2019-05-10T21:09:12.037Z,18.00
2019-05-10T21:11:42.037Z,18.10
2019-05-10T21:14:12.081Z,18.00
2019-05-10T21:16:42.011Z,18.00
2019-05-10T21:19:12.048Z,18.00
2019-05-10T21:21:42.116Z,17.90
2019-05-10T21:24:12.296Z,17.90
2019-05-10T21:26:42.276Z,17.90
2019-05-10T21:29:12.306Z,17.80
2019-05-10T21:31:42.387Z,17.80
2019-05-10T21:34:12.400Z,17.80
2019-05-10T21:36:42.647Z,17.80
2019-05-10T21:39:12.563Z,17.80
2019-05-10T21:41:42.679Z,17.70
2019-05-10T21:44:12.759Z,17.70
2019-05-10T21:46:42.787Z,17.70
2019-05-10T21:49:12.727Z,17.70
2019-05-10T21:51:42.692Z,17.60
2019-05-10T21:54:12.728Z,17.60
2019-05-10T21:56:42.779Z,17.60
2019-05-10T21:59:12.831Z,17.60
2019-05-10T22:01:43.007Z,17.50
2019-05-10T22:04:13.189Z,17.50
2019-05-10T22:06:43.279Z,17.40
2019-05-10T22:09:14.471Z,17.40
2019-05-10T22:11:44.567Z,17.40
2019-05-10T22:14:14.499Z,17.40
2019-05-10T22:16:44.619Z,17.40
2019-05-10T22:19:14.705Z,17.30
2019-05-10T22:21:44.743Z,17.30
2019-05-10T22:24:14.743Z,17.30
2019-05-10T22:26:44.784Z,17.30
2019-05-10T22:29:14.959Z,17.20
2019-05-10T22:31:44.928Z,17.20
2019-05-10T22:34:15.044Z,17.20
2019-05-10T22:36:45.056Z,17.20
2019-05-10T22:39:15.016Z,17.10
2019-05-10T22:41:45.031Z,17.10
2019-05-10T22:44:15.144Z,17.10
2019-05-10T22:46:45.084Z,17.00
2019-05-10T22:49:15.123Z,17.00
2019-05-10T22:51:45.159Z,17.00
2019-05-10T22:54:15.206Z,16.90
2019-05-10T22:56:45.315Z,16.90
2019-05-10T22:59:15.351Z,16.90
2019-05-10T23:01:45.391Z,16.90
2019-05-10T23:04:15.323Z,16.90
2019-05-10T23:06:45.292Z,16.80
2019-05-10T23:09:24.667Z,16.70
2019-05-10T23:11:47.863Z,16.70
2019-05-10T23:14:17.862Z,16.70
2019-05-10T23:16:47.981Z,16.50
2019-05-10T23:19:18.008Z,16.40
2019-05-10T23:21:48.047Z,16.20
2019-05-10T23:24:18.088Z,16.30
2019-05-10T23:26:48.028Z,16.30
2019-05-10T23:29:18.012Z,16.20
2019-05-10T23:31:47.964Z,16.00
2019-05-10T23:34:18.000Z,16.00
2019-05-10T23:36:47.973Z,16.00
2019-05-10T23:39:17.941Z,15.90
2019-05-10T23:41:47.981Z,15.90
2019-05-10T23:44:17.984Z,15.90
2019-05-10T23:46:48.103Z,15.60
2019-05-10T23:49:18.104Z,15.50
2019-05-10T23:51:48.079Z,15.30
2019-05-10T23:54:18.083Z,15.30
2019-05-10T23:56:48.119Z,15.40
2019-05-10T23:59:18.123Z,15.20
